HAZ7125 ZSPD-LSGG
Flight info
| Callsign | HAZ7125 |
|---|---|
| Flight time | N/A |
| Altitude | 34100 |
| Route | PIK81D PIKAS G330 PIMOL A593 DALIM W157 VYK G212 SOTMU B339 POLHO Y520 SERNA/K0889F341 R497 RO N869 KUMOD A307 SOREB T631 NWK M59 SORLI P989 NETLU T756 ODNUS L870 RANVA/N0475F341 L870 RESMO DCT LOGNA DCT KEDUX DCT BALIT/K0878F341 DCT KUNER/N0474F341 DCT BEZMI DCT GOVEN DCT GOBAX DCT TADUV DCT TABAT DCT IBAGA DCT DKB N869 NATOR DCT LUTIX DCT BENOT |
| Aircraft | B772/H-SDE2E3FGHIJ5LORVWXY/LB1D1 |
Departure
| Time | 2026-04-30 15:11 |
|---|---|
| Airport | Shanghai Pudong International Airport (ZSPD) |
Arrival
| Time | N/A |
|---|---|
| Airport | Geneva International Airport (LSGG) |
| Time | Latitude | Longitude | Altitude | Speed | Heading |
|---|---|---|---|---|---|
| 2026-04-30 14:36 | 31.14676 | 121.79828 | 27 ft | 0 kts | 72° |
| 2026-04-30 14:58 | 31.14676 | 121.79827 | 27 ft | 1 kts | 72° |
| 2026-04-30 14:58 | 31.14668 | 121.79801 | 27 ft | 4 kts | 72° |
| 2026-04-30 14:58 | 31.14650 | 121.79743 | 26 ft | 4 kts | 54° |
| 2026-04-30 14:59 | 31.14608 | 121.79727 | 26 ft | 1 kts | 342° |
| 2026-04-30 15:00 | 31.14589 | 121.79734 | 27 ft | 0 kts | 342° |
| 2026-04-30 15:03 | 31.14770 | 121.79666 | 27 ft | 16 kts | 342° |
| 2026-04-30 15:03 | 31.14977 | 121.79587 | 27 ft | 16 kts | 342° |
| 2026-04-30 15:04 | 31.15180 | 121.79510 | 27 ft | 11 kts | 342° |
| 2026-04-30 15:04 | 31.15164 | 121.79300 | 27 ft | 13 kts | 252° |
| 2026-04-30 15:05 | 31.15313 | 121.79124 | 27 ft | 15 kts | 342° |
| 2026-04-30 15:06 | 31.15538 | 121.79040 | 26 ft | 19 kts | 342° |
| 2026-04-30 15:06 | 31.15804 | 121.78939 | 26 ft | 19 kts | 342° |
| 2026-04-30 15:07 | 31.15891 | 121.78906 | 27 ft | 0 kts | 342° |
| 2026-04-30 15:08 | 31.16038 | 121.78850 | 27 ft | 9 kts | 343° |
| 2026-04-30 15:09 | 31.16149 | 121.78796 | 27 ft | 7 kts | 300° |
| 2026-04-30 15:09 | 31.16135 | 121.78706 | 27 ft | 4 kts | 253° |
| 2026-04-30 15:10 | 31.16116 | 121.78637 | 27 ft | 7 kts | 245° |
| 2026-04-30 15:11 | 31.15247 | 121.78931 | 30 ft | 129 kts | 162° |
| 2026-04-30 15:11 | 31.12886 | 121.79825 | 797 ft | 190 kts | 164° |
| 2026-04-30 15:12 | 31.08679 | 121.81231 | 2871 ft | 238 kts | 166° |
| 2026-04-30 15:13 | 31.05274 | 121.82325 | 3849 ft | 267 kts | 166° |
| 2026-04-30 15:14 | 30.98570 | 121.80731 | 5832 ft | 272 kts | 251° |
| 2026-04-30 15:14 | 30.96826 | 121.74454 | 7733 ft | 270 kts | 257° |
| 2026-04-30 15:16 | 30.97578 | 121.64106 | 10318 ft | 271 kts | 284° |
| 2026-04-30 15:17 | 30.99383 | 121.54366 | 11205 ft | 337 kts | 284° |
| 2026-04-30 15:18 | 31.01883 | 121.40751 | 14525 ft | 348 kts | 285° |
| 2026-04-30 15:19 | 31.03413 | 121.32421 | 16345 ft | 352 kts | 285° |